sensor_id;sensor_type;location;lat;lon;timestamp;pressure;altitude;pressure_sealevel;temperature;humidity
8298;BME280;4187;42.778;23.242;2023-09-19T00:02:21;95683.06;;;17.31;100.00
8298;BME280;4187;42.778;23.242;2023-09-19T00:04:48;95685.44;;;17.26;100.00
8298;BME280;4187;42.778;23.242;2023-09-19T00:07:15;95686.44;;;17.25;100.00
8298;BME280;4187;42.778;23.242;2023-09-19T00:09:43;95691.13;;;17.23;100.00
8298;BME280;4187;42.778;23.242;2023-09-19T00:12:10;95693.78;;;17.23;100.00
8298;BME280;4187;42.778;23.242;2023-09-19T00:14:38;95688.47;;;17.23;100.00
8298;BME280;4187;42.778;23.242;2023-09-19T00:17:05;95688.66;;;17.21;100.00
8298;BME280;4187;42.778;23.242;2023-09-19T00:19:35;95679.16;;;17.19;100.00
8298;BME280;4187;42.778;23.242;2023-09-19T00:22:02;95675.13;;;17.23;100.00
8298;BME280;4187;42.778;23.242;2023-09-19T00:24:29;95672.28;;;17.24;100.00
8298;BME280;4187;42.778;23.242;2023-09-19T00:26:56;95671.28;;;17.25;100.00
8298;BME280;4187;42.778;23.242;2023-09-19T00:29:25;95663.63;;;17.22;100.00
8298;BME280;4187;42.778;23.242;2023-09-19T00:31:55;95665.47;;;17.22;100.00
8298;BME280;4187;42.778;23.242;2023-09-19T00:34:22;95661.19;;;17.13;100.00
8298;BME280;4187;42.778;23.242;2023-09-19T00:36:52;95667.06;;;17.08;100.00
8298;BME280;4187;42.778;23.242;2023-09-19T00:39:20;95669.22;;;17.05;100.00
8298;BME280;4187;42.778;23.242;2023-09-19T00:41:47;95675.56;;;17.04;100.00
8298;BME280;4187;42.778;23.242;2023-09-19T00:44:14;95674.72;;;17.03;100.00
8298;BME280;4187;42.778;23.242;2023-09-19T00:46:43;95680.25;;;17.02;100.00
8298;BME280;4187;42.778;23.242;2023-09-19T00:49:13;95673.91;;;17.03;100.00
8298;BME280;4187;42.778;23.242;2023-09-19T00:51:40;95670.41;;;17.02;100.00
8298;BME280;4187;42.778;23.242;2023-09-19T00:54:12;95669.56;;;17.02;100.00
8298;BME280;4187;42.778;23.242;2023-09-19T00:56:44;95663.41;;;17.01;100.00
8298;BME280;4187;42.778;23.242;2023-09-19T00:59:11;95657.59;;;16.98;100.00
8298;BME280;4187;42.778;23.242;2023-09-19T01:01:38;95656.25;;;17.02;100.00
8298;BME280;4187;42.778;23.242;2023-09-19T01:04:06;95589.53;;;16.48;100.00
8298;BME280;4187;42.778;23.242;2023-09-19T01:06:33;95669.97;;;16.91;100.00
8298;BME280;4187;42.778;23.242;2023-09-19T01:09:02;95666.00;;;16.87;100.00
8298;BME280;4187;42.778;23.242;2023-09-19T01:11:36;95671.31;;;16.87;100.00
8298;BME280;4187;42.778;23.242;2023-09-19T01:14:15;95674.16;;;16.85;100.00
8298;BME280;4187;42.778;23.242;2023-09-19T01:16:50;95683.81;;;16.86;100.00
8298;BME280;4187;42.778;23.242;2023-09-19T01:22:28;95649.28;;;16.62;100.00
8298;BME280;4187;42.778;23.242;2023-09-19T01:25:19;95667.69;;;16.80;100.00
8298;BME280;4187;42.778;23.242;2023-09-19T01:28:07;95601.88;;;16.33;100.00
8298;BME280;4187;42.778;23.242;2023-09-19T01:30:44;95668.53;;;16.72;100.00
8298;BME280;4187;42.778;23.242;2023-09-19T01:33:12;95671.06;;;16.65;100.00
8298;BME280;4187;42.778;23.242;2023-09-19T01:35:40;95672.72;;;16.66;100.00
8298;BME280;4187;42.778;23.242;2023-09-19T01:38:07;95665.06;;;16.63;100.00
8298;BME280;4187;42.778;23.242;2023-09-19T01:40:41;95676.91;;;16.61;100.00
8298;BME280;4187;42.778;23.242;2023-09-19T01:43:14;95645.50;;;16.40;100.00
8298;BME280;4187;42.778;23.242;2023-09-19T01:45:51;95676.25;;;16.51;100.00
8298;BME280;4187;42.778;23.242;2023-09-19T01:48:25;95682.44;;;16.43;100.00
8298;BME280;4187;42.778;23.242;2023-09-19T01:51:00;95675.78;;;16.39;100.00
8298;BME280;4187;42.778;23.242;2023-09-19T01:53:33;95668.00;;;16.30;100.00
8298;BME280;4187;42.778;23.242;2023-09-19T01:56:01;95671.00;;;16.27;100.00
8298;BME280;4187;42.778;23.242;2023-09-19T01:58:34;95672.50;;;16.21;100.00
8298;BME280;4187;42.778;23.242;2023-09-19T02:01:04;95668.69;;;16.15;100.00
8298;BME280;4187;42.778;23.242;2023-09-19T02:03:33;95663.03;;;16.10;100.00
8298;BME280;4187;42.778;23.242;2023-09-19T02:06:01;95669.03;;;16.12;100.00
8298;BME280;4187;42.778;23.242;2023-09-19T02:08:30;95667.84;;;16.15;100.00
8298;BME280;4187;42.778;23.242;2023-09-19T02:10:58;95665.38;;;16.13;100.00
8298;BME280;4187;42.778;23.242;2023-09-19T02:13:26;95658.56;;;16.11;100.00
8298;BME280;4187;42.778;23.242;2023-09-19T02:15:53;95656.88;;;16.10;100.00
8298;BME280;4187;42.778;23.242;2023-09-19T02:18:22;95663.19;;;16.09;100.00
8298;BME280;4187;42.778;23.242;2023-09-19T02:20:49;95662.53;;;16.07;100.00
8298;BME280;4187;42.778;23.242;2023-09-19T02:23:16;95664.53;;;16.05;100.00
8298;BME280;4187;42.778;23.242;2023-09-19T02:25:51;95662.88;;;16.04;100.00
8298;BME280;4187;42.778;23.242;2023-09-19T02:28:18;95660.22;;;16.04;100.00
8298;BME280;4187;42.778;23.242;2023-09-19T02:30:47;95656.72;;;16.03;100.00
8298;BME280;4187;42.778;23.242;2023-09-19T02:33:14;95642.78;;;15.85;100.00
8298;BME280;4187;42.778;23.242;2023-09-19T02:35:42;95662.56;;;15.83;100.00
8298;BME280;4187;42.778;23.242;2023-09-19T02:38:09;95648.09;;;15.61;100.00
8298;BME280;4187;42.778;23.242;2023-09-19T02:40:37;95645.28;;;15.46;100.00
8298;BME280;4187;42.778;23.242;2023-09-19T02:43:04;95648.69;;;15.15;100.00
8298;BME280;4187;42.778;23.242;2023-09-19T02:45:35;95648.44;;;14.68;100.00
8298;BME280;4187;42.778;23.242;2023-09-19T02:48:03;95645.88;;;14.24;100.00
8298;BME280;4187;42.778;23.242;2023-09-19T02:50:30;95628.72;;;14.11;100.00
8298;BME280;4187;42.778;23.242;2023-09-19T02:52:58;95633.19;;;14.10;100.00
8298;BME280;4187;42.778;23.242;2023-09-19T02:55:26;95627.41;;;14.15;100.00
8298;BME280;4187;42.778;23.242;2023-09-19T02:57:53;95622.63;;;14.18;100.00
8298;BME280;4187;42.778;23.242;2023-09-19T03:00:21;95629.13;;;14.24;100.00
8298;BME280;4187;42.778;23.242;2023-09-19T03:02:48;95611.00;;;14.19;100.00
8298;BME280;4187;42.778;23.242;2023-09-19T03:05:15;95625.25;;;14.44;100.00
8298;BME280;4187;42.778;23.242;2023-09-19T03:07:42;95609.88;;;14.64;100.00
8298;BME280;4187;42.778;23.242;2023-09-19T03:10:13;95632.84;;;14.73;100.00
8298;BME280;4187;42.778;23.242;2023-09-19T03:12:40;95630.50;;;14.70;100.00
8298;BME280;4187;42.778;23.242;2023-09-19T03:15:08;95625.44;;;14.51;100.00
8298;BME280;4187;42.778;23.242;2023-09-19T03:17:35;95602.34;;;14.17;100.00
8298;BME280;4187;42.778;23.242;2023-09-19T03:20:02;95620.59;;;14.38;100.00
8298;BME280;4187;42.778;23.242;2023-09-19T03:22:29;95630.03;;;14.32;100.00
8298;BME280;4187;42.778;23.242;2023-09-19T03:24:56;95612.78;;;14.11;100.00
8298;BME280;4187;42.778;23.242;2023-09-19T03:27:25;95622.19;;;13.97;100.00
8298;BME280;4187;42.778;23.242;2023-09-19T03:29:52;95615.72;;;14.00;100.00
8298;BME280;4187;42.778;23.242;2023-09-19T03:32:19;95628.75;;;14.19;100.00
8298;BME280;4187;42.778;23.242;2023-09-19T03:34:46;95627.97;;;14.26;100.00
8298;BME280;4187;42.778;23.242;2023-09-19T03:37:14;95632.13;;;14.29;100.00
8298;BME280;4187;42.778;23.242;2023-09-19T03:39:41;95623.19;;;14.30;100.00
8298;BME280;4187;42.778;23.242;2023-09-19T03:42:08;95639.09;;;14.30;100.00
8298;BME280;4187;42.778;23.242;2023-09-19T03:44:36;95642.28;;;14.33;100.00
8298;BME280;4187;42.778;23.242;2023-09-19T03:47:04;95641.06;;;14.28;100.00
8298;BME280;4187;42.778;23.242;2023-09-19T03:49:32;95644.09;;;14.33;100.00
8298;BME280;4187;42.778;23.242;2023-09-19T03:51:59;95632.72;;;14.15;100.00
8298;BME280;4187;42.778;23.242;2023-09-19T03:54:26;95641.56;;;13.98;100.00
8298;BME280;4187;42.778;23.242;2023-09-19T03:56:53;95646.31;;;13.86;100.00
8298;BME280;4187;42.778;23.242;2023-09-19T03:59:20;95658.22;;;13.82;100.00
8298;BME280;4187;42.778;23.242;2023-09-19T04:01:48;95654.53;;;13.75;100.00
8298;BME280;4187;42.778;23.242;2023-09-19T04:04:15;95655.50;;;13.74;100.00
8298;BME280;4187;42.778;23.242;2023-09-19T04:06:44;95651.88;;;13.75;100.00
8298;BME280;4187;42.778;23.242;2023-09-19T04:09:11;95652.47;;;13.87;100.00
8298;BME280;4187;42.778;23.242;2023-09-19T04:11:38;95651.81;;;13.93;100.00
8298;BME280;4187;42.778;23.242;2023-09-19T04:14:05;95646.41;;;14.02;100.00
8298;BME280;4187;42.778;23.242;2023-09-19T04:16:32;95646.09;;;14.05;100.00
8298;BME280;4187;42.778;23.242;2023-09-19T04:19:00;95644.13;;;14.07;100.00
8298;BME280;4187;42.778;23.242;2023-09-19T04:21:28;95646.41;;;14.02;100.00
8298;BME280;4187;42.778;23.242;2023-09-19T04:23:55;95643.53;;;13.96;100.00
8298;BME280;4187;42.778;23.242;2023-09-19T04:26:22;95653.50;;;13.94;100.00
8298;BME280;4187;42.778;23.242;2023-09-19T04:28:49;95644.31;;;13.88;100.00
8298;BME280;4187;42.778;23.242;2023-09-19T04:31:16;95623.31;;;13.95;100.00
8298;BME280;4187;42.778;23.242;2023-09-19T04:33:45;95636.50;;;14.12;100.00
8298;BME280;4187;42.778;23.242;2023-09-19T04:36:13;95634.97;;;14.69;100.00
8298;BME280;4187;42.778;23.242;2023-09-19T04:38:40;95634.56;;;15.14;100.00
8298;BME280;4187;42.778;23.242;2023-09-19T04:41:07;95638.63;;;15.59;100.00
8298;BME280;4187;42.778;23.242;2023-09-19T04:43:33;95626.97;;;15.84;100.00
8298;BME280;4187;42.778;23.242;2023-09-19T04:46:00;95638.25;;;16.10;100.00
8298;BME280;4187;42.778;23.242;2023-09-19T04:48:28;95649.34;;;16.30;100.00
8298;BME280;4187;42.778;23.242;2023-09-19T04:50:55;95643.69;;;16.33;100.00
8298;BME280;4187;42.778;23.242;2023-09-19T04:53:23;95648.66;;;16.36;100.00
8298;BME280;4187;42.778;23.242;2023-09-19T04:55:51;95649.97;;;16.40;100.00
8298;BME280;4187;42.778;23.242;2023-09-19T04:58:21;95653.91;;;16.52;100.00
8298;BME280;4187;42.778;23.242;2023-09-19T05:00:48;95647.09;;;16.57;100.00
8298;BME280;4187;42.778;23.242;2023-09-19T05:03:16;95640.09;;;16.64;100.00
8298;BME280;4187;42.778;23.242;2023-09-19T05:05:45;95636.41;;;16.65;100.00
8298;BME280;4187;42.778;23.242;2023-09-19T05:08:12;95650.66;;;16.89;100.00
8298;BME280;4187;42.778;23.242;2023-09-19T05:10:41;95662.91;;;16.98;100.00
8298;BME280;4187;42.778;23.242;2023-09-19T05:13:08;95667.56;;;17.04;100.00
8298;BME280;4187;42.778;23.242;2023-09-19T05:15:35;95666.16;;;17.16;100.00
8298;BME280;4187;42.778;23.242;2023-09-19T05:18:02;95670.56;;;17.31;100.00
8298;BME280;4187;42.778;23.242;2023-09-19T05:20:29;95662.25;;;17.49;100.00
8298;BME280;4187;42.778;23.242;2023-09-19T05:22:58;95657.94;;;17.56;100.00
8298;BME280;4187;42.778;23.242;2023-09-19T05:25:27;95662.19;;;17.65;100.00
8298;BME280;4187;42.778;23.242;2023-09-19T05:27:56;95662.09;;;17.73;100.00
8298;BME280;4187;42.778;23.242;2023-09-19T05:30:24;95653.38;;;17.79;100.00
8298;BME280;4187;42.778;23.242;2023-09-19T05:32:53;95646.06;;;17.81;100.00
8298;BME280;4187;42.778;23.242;2023-09-19T05:35:20;95648.75;;;17.96;100.00
8298;BME280;4187;42.778;23.242;2023-09-19T05:37:47;95655.59;;;18.13;100.00
8298;BME280;4187;42.778;23.242;2023-09-19T05:40:16;95653.28;;;18.25;100.00
8298;BME280;4187;42.778;23.242;2023-09-19T05:42:43;95652.84;;;18.36;100.00
8298;BME280;4187;42.778;23.242;2023-09-19T05:45:12;95641.69;;;18.47;100.00
8298;BME280;4187;42.778;23.242;2023-09-19T05:47:39;95650.41;;;18.64;100.00
8298;BME280;4187;42.778;23.242;2023-09-19T05:50:09;95645.59;;;18.74;100.00
8298;BME280;4187;42.778;23.242;2023-09-19T05:52:36;95649.84;;;18.83;100.00
8298;BME280;4187;42.778;23.242;2023-09-19T05:55:04;95650.19;;;18.94;100.00
8298;BME280;4187;42.778;23.242;2023-09-19T05:57:33;95644.06;;;19.15;100.00
8298;BME280;4187;42.778;23.242;2023-09-19T05:59:59;95642.09;;;19.24;100.00
8298;BME280;4187;42.778;23.242;2023-09-19T06:02:28;95614.44;;;19.17;100.00
8298;BME280;4187;42.778;23.242;2023-09-19T06:04:55;95644.19;;;19.43;100.00
8298;BME280;4187;42.778;23.242;2023-09-19T06:07:22;95638.34;;;19.54;100.00
8298;BME280;4187;42.778;23.242;2023-09-19T06:09:51;95643.09;;;19.58;100.00
8298;BME280;4187;42.778;23.242;2023-09-19T06:12:19;95644.13;;;19.57;100.00
8298;BME280;4187;42.778;23.242;2023-09-19T06:14:45;95632.34;;;19.73;100.00
8298;BME280;4187;42.778;23.242;2023-09-19T06:17:13;95631.69;;;19.92;100.00
8298;BME280;4187;42.778;23.242;2023-09-19T06:19:42;95634.50;;;20.12;100.00
8298;BME280;4187;42.778;23.242;2023-09-19T06:22:14;95634.19;;;20.21;100.00
8298;BME280;4187;42.778;23.242;2023-09-19T06:24:41;95635.75;;;20.37;100.00
8298;BME280;4187;42.778;23.242;2023-09-19T06:27:08;95633.97;;;20.51;100.00
8298;BME280;4187;42.778;23.242;2023-09-19T06:29:35;95635.28;;;20.61;100.00
8298;BME280;4187;42.778;23.242;2023-09-19T06:32:07;95635.78;;;20.78;100.00
8298;BME280;4187;42.778;23.242;2023-09-19T06:34:34;95631.09;;;20.86;100.00
8298;BME280;4187;42.778;23.242;2023-09-19T06:37:02;95639.59;;;20.97;100.00
8298;BME280;4187;42.778;23.242;2023-09-19T06:39:30;95634.84;;;20.92;100.00
8298;BME280;4187;42.778;23.242;2023-09-19T06:41:57;95636.13;;;20.68;100.00
8298;BME280;4187;42.778;23.242;2023-09-19T06:44:25;95635.72;;;20.65;100.00
8298;BME280;4187;42.778;23.242;2023-09-19T06:46:55;95632.00;;;20.66;100.00
8298;BME280;4187;42.778;23.242;2023-09-19T06:49:21;95637.84;;;20.76;100.00
8298;BME280;4187;42.778;23.242;2023-09-19T06:51:48;95652.88;;;20.70;100.00
8298;BME280;4187;42.778;23.242;2023-09-19T06:54:16;95645.41;;;20.66;100.00
8298;BME280;4187;42.778;23.242;2023-09-19T06:56:43;95642.09;;;20.64;100.00
8298;BME280;4187;42.778;23.242;2023-09-19T06:59:10;95643.84;;;20.78;100.00
8298;BME280;4187;42.778;23.242;2023-09-19T07:01:40;95646.53;;;20.84;100.00
8298;BME280;4187;42.778;23.242;2023-09-19T07:04:07;95659.56;;;20.87;100.00
8298;BME280;4187;42.778;23.242;2023-09-19T07:06:33;95651.59;;;20.60;100.00
8298;BME280;4187;42.778;23.242;2023-09-19T07:09:01;95645.16;;;20.54;100.00
8298;BME280;4187;42.778;23.242;2023-09-19T07:11:29;95644.09;;;20.49;100.00
8298;BME280;4187;42.778;23.242;2023-09-19T07:13:57;95651.91;;;20.50;100.00
8298;BME280;4187;42.778;23.242;2023-09-19T07:16:24;95641.50;;;20.34;100.00
8298;BME280;4187;42.778;23.242;2023-09-19T07:18:55;95644.00;;;20.36;100.00
8298;BME280;4187;42.778;23.242;2023-09-19T07:21:23;95635.81;;;20.22;100.00
8298;BME280;4187;42.778;23.242;2023-09-19T07:23:50;95646.78;;;20.49;100.00
8298;BME280;4187;42.778;23.242;2023-09-19T07:26:16;95653.13;;;20.48;100.00
8298;BME280;4187;42.778;23.242;2023-09-19T07:28:44;95643.78;;;20.37;100.00
8298;BME280;4187;42.778;23.242;2023-09-19T07:31:11;95652.53;;;20.46;100.00
8298;BME280;4187;42.778;23.242;2023-09-19T07:33:40;95651.75;;;20.58;100.00
8298;BME280;4187;42.778;23.242;2023-09-19T07:36:10;95657.25;;;20.78;100.00
8298;BME280;4187;42.778;23.242;2023-09-19T07:38:39;95647.41;;;20.92;100.00
8298;BME280;4187;42.778;23.242;2023-09-19T07:41:07;95649.78;;;21.14;100.00
8298;BME280;4187;42.778;23.242;2023-09-19T07:43:34;95652.56;;;21.27;100.00
8298;BME280;4187;42.778;23.242;2023-09-19T07:46:05;95664.16;;;21.48;100.00
8298;BME280;4187;42.778;23.242;2023-09-19T07:48:34;95644.56;;;21.60;100.00
8298;BME280;4187;42.778;23.242;2023-09-19T07:51:04;95656.22;;;21.87;100.00
8298;BME280;4187;42.778;23.242;2023-09-19T07:53:31;95648.34;;;21.98;100.00
8298;BME280;4187;42.778;23.242;2023-09-19T07:56:03;95649.22;;;22.19;100.00
8298;BME280;4187;42.778;23.242;2023-09-19T07:58:31;95647.53;;;22.31;100.00
8298;BME280;4187;42.778;23.242;2023-09-19T08:01:04;95645.03;;;22.49;100.00
8298;BME280;4187;42.778;23.242;2023-09-19T08:03:31;95642.13;;;22.63;100.00
8298;BME280;4187;42.778;23.242;2023-09-19T08:05:59;95643.13;;;22.82;100.00
8298;BME280;4187;42.778;23.242;2023-09-19T08:08:26;95646.84;;;22.88;100.00
8298;BME280;4187;42.778;23.242;2023-09-19T08:10:53;95640.19;;;22.90;100.00
8298;BME280;4187;42.778;23.242;2023-09-19T08:13:22;95637.47;;;23.03;100.00
8298;BME280;4187;42.778;23.242;2023-09-19T08:15:49;95637.03;;;23.13;100.00
8298;BME280;4187;42.778;23.242;2023-09-19T08:18:19;95646.31;;;23.17;97.33
8298;BME280;4187;42.778;23.242;2023-09-19T08:20:51;95648.56;;;23.20;97.63
8298;BME280;4187;42.778;23.242;2023-09-19T08:23:19;95637.56;;;23.28;97.23
8298;BME280;4187;42.778;23.242;2023-09-19T08:25:46;95647.88;;;23.44;97.70
8298;BME280;4187;42.778;23.242;2023-09-19T08:28:13;95641.44;;;23.52;96.85
8298;BME280;4187;42.778;23.242;2023-09-19T08:30:45;95639.94;;;23.56;95.33
8298;BME280;4187;42.778;23.242;2023-09-19T08:33:12;95641.94;;;23.67;94.60
8298;BME280;4187;42.778;23.242;2023-09-19T08:35:41;95638.56;;;23.78;94.32
8298;BME280;4187;42.778;23.242;2023-09-19T08:38:10;95632.13;;;23.79;94.55
8298;BME280;4187;42.778;23.242;2023-09-19T08:40:40;95633.91;;;23.92;94.43
8298;BME280;4187;42.778;23.242;2023-09-19T08:43:08;95629.50;;;23.97;92.79
8298;BME280;4187;42.778;23.242;2023-09-19T08:45:34;95623.94;;;23.61;90.84
8298;BME280;4187;42.778;23.242;2023-09-19T08:48:17;95622.78;;;23.50;93.69
8298;BME280;4187;42.778;23.242;2023-09-19T08:50:49;95623.53;;;23.64;92.83
8298;BME280;4187;42.778;23.242;2023-09-19T08:53:21;95617.66;;;23.73;93.59
8298;BME280;4187;42.778;23.242;2023-09-19T08:55:53;95626.69;;;23.86;91.96
8298;BME280;4187;42.778;23.242;2023-09-19T08:58:21;95623.41;;;23.84;92.49
8298;BME280;4187;42.778;23.242;2023-09-19T09:00:54;95621.69;;;23.89;92.62
8298;BME280;4187;42.778;23.242;2023-09-19T09:03:22;95621.19;;;23.99;94.08
8298;BME280;4187;42.778;23.242;2023-09-19T09:05:51;95626.47;;;24.18;93.05
8298;BME280;4187;42.778;23.242;2023-09-19T09:08:19;95621.72;;;24.38;91.86
8298;BME280;4187;42.778;23.242;2023-09-19T09:10:47;95622.50;;;24.21;88.90
8298;BME280;4187;42.778;23.242;2023-09-19T09:13:14;95613.91;;;24.06;89.90
8298;BME280;4187;42.778;23.242;2023-09-19T09:15:41;95594.47;;;23.97;90.06
8298;BME280;4187;42.778;23.242;2023-09-19T09:18:10;95615.63;;;24.25;90.04
8298;BME280;4187;42.778;23.242;2023-09-19T09:20:37;95602.91;;;24.32;90.07
8298;BME280;4187;42.778;23.242;2023-09-19T09:23:05;95601.59;;;24.41;89.92
8298;BME280;4187;42.778;23.242;2023-09-19T09:25:51;95598.19;;;24.27;87.78
8298;BME280;4187;42.778;23.242;2023-09-19T09:28:23;95536.09;;;24.09;90.90
8298;BME280;4187;42.778;23.242;2023-09-19T09:30:50;95589.22;;;24.52;88.16
8298;BME280;4187;42.778;23.242;2023-09-19T09:33:17;95587.41;;;24.64;89.53
8298;BME280;4187;42.778;23.242;2023-09-19T09:35:48;95582.88;;;24.82;91.07
8298;BME280;4187;42.778;23.242;2023-09-19T09:38:19;95578.63;;;24.68;88.63
8298;BME280;4187;42.778;23.242;2023-09-19T09:40:48;95574.47;;;24.54;87.88
8298;BME280;4187;42.778;23.242;2023-09-19T09:43:27;95562.16;;;24.58;89.07
8298;BME280;4187;42.778;23.242;2023-09-19T09:46:21;95570.03;;;24.60;87.65
8298;BME280;4187;42.778;23.242;2023-09-19T09:49:05;95572.78;;;24.71;88.38
8298;BME280;4187;42.778;23.242;2023-09-19T09:51:45;95574.56;;;24.84;88.13
8298;BME280;4187;42.778;23.242;2023-09-19T09:54:25;95566.50;;;24.95;88.77
8298;BME280;4187;42.778;23.242;2023-09-19T09:57:00;95547.13;;;24.87;87.28
8298;BME280;4187;42.778;23.242;2023-09-19T09:59:46;95567.31;;;25.14;88.92
8298;BME280;4187;42.778;23.242;2023-09-19T10:02:13;95571.72;;;25.27;87.98
8298;BME280;4187;42.778;23.242;2023-09-19T10:04:48;95565.31;;;25.10;85.71
8298;BME280;4187;42.778;23.242;2023-09-19T10:07:33;95562.97;;;25.13;87.92
8298;BME280;4187;42.778;23.242;2023-09-19T10:10:06;95559.38;;;25.19;88.16
8298;BME280;4187;42.778;23.242;2023-09-19T10:12:43;95545.94;;;25.13;84.82
8298;BME280;4187;42.778;23.242;2023-09-19T10:15:11;95565.09;;;25.11;85.56
8298;BME280;4187;42.778;23.242;2023-09-19T10:17:42;95567.69;;;25.18;86.98
8298;BME280;4187;42.778;23.242;2023-09-19T10:20:12;95557.16;;;25.28;88.42
8298;BME280;4187;42.778;23.242;2023-09-19T10:22:48;95568.25;;;25.38;88.14
8298;BME280;4187;42.778;23.242;2023-09-19T10:25:25;95557.72;;;25.18;85.95
8298;BME280;4187;42.778;23.242;2023-09-19T10:27:54;95564.56;;;25.03;85.47
8298;BME280;4187;42.778;23.242;2023-09-19T10:30:23;95555.72;;;24.95;87.87
8298;BME280;4187;42.778;23.242;2023-09-19T10:32:57;95557.13;;;24.98;88.44
8298;BME280;4187;42.778;23.242;2023-09-19T10:35:26;95537.88;;;24.94;86.84
8298;BME280;4187;42.778;23.242;2023-09-19T10:37:55;95553.91;;;25.08;87.64
8298;BME280;4187;42.778;23.242;2023-09-19T10:40:26;95550.91;;;25.16;87.20
8298;BME280;4187;42.778;23.242;2023-09-19T10:43:00;95543.06;;;25.26;88.01
8298;BME280;4187;42.778;23.242;2023-09-19T10:45:30;95535.47;;;25.34;87.66
8298;BME280;4187;42.778;23.242;2023-09-19T10:47:58;95512.88;;;25.29;86.65
8298;BME280;4187;42.778;23.242;2023-09-19T10:50:27;95531.84;;;25.40;84.47
8298;BME280;4187;42.778;23.242;2023-09-19T10:53:00;95537.44;;;25.27;85.91
8298;BME280;4187;42.778;23.242;2023-09-19T10:55:32;95521.72;;;25.36;88.71
8298;BME280;4187;42.778;23.242;2023-09-19T10:58:01;95527.56;;;25.51;87.01
8298;BME280;4187;42.778;23.242;2023-09-19T11:00:30;95529.34;;;25.57;86.73
8298;BME280;4187;42.778;23.242;2023-09-19T11:03:19;95523.94;;;25.69;87.15
8298;BME280;4187;42.778;23.242;2023-09-19T11:06:09;95489.13;;;25.49;85.82
8298;BME280;4187;42.778;23.242;2023-09-19T11:08:58;95512.44;;;25.73;87.67
8298;BME280;4187;42.778;23.242;2023-09-19T11:11:49;95525.28;;;26.01;87.52
8298;BME280;4187;42.778;23.242;2023-09-19T11:14:39;95522.72;;;26.18;88.13
8298;BME280;4187;42.778;23.242;2023-09-19T11:17:34;95518.38;;;26.28;86.95
8298;BME280;4187;42.778;23.242;2023-09-19T11:20:22;95517.06;;;26.42;85.28
8298;BME280;4187;42.778;23.242;2023-09-19T11:23:23;95509.50;;;26.56;85.53
8298;BME280;4187;42.778;23.242;2023-09-19T11:25:51;95500.56;;;26.67;84.30
8298;BME280;4187;42.778;23.242;2023-09-19T11:28:34;95501.00;;;26.87;84.02
8298;BME280;4187;42.778;23.242;2023-09-19T11:34:40;95486.19;;;27.35;82.28
8298;BME280;4187;42.778;23.242;2023-09-19T11:40:45;95473.25;;;27.53;80.05
8298;BME280;4187;42.778;23.242;2023-09-19T11:43:33;95478.22;;;27.73;80.52
8298;BME280;4187;42.778;23.242;2023-09-19T11:46:07;95475.31;;;27.79;79.90
8298;BME280;4187;42.778;23.242;2023-09-19T11:48:40;95465.84;;;27.99;80.13
8298;BME280;4187;42.778;23.242;2023-09-19T11:51:11;95463.28;;;28.25;80.45
8298;BME280;4187;42.778;23.242;2023-09-19T11:53:45;95460.03;;;28.45;78.06
8298;BME280;4187;42.778;23.242;2023-09-19T11:56:14;95456.03;;;28.31;76.97
8298;BME280;4187;42.778;23.242;2023-09-19T11:58:44;95452.91;;;28.39;77.68
8298;BME280;4187;42.778;23.242;2023-09-19T12:01:23;95440.03;;;28.29;76.60
8298;BME280;4187;42.778;23.242;2023-09-19T12:03:56;95439.53;;;28.32;77.57
8298;BME280;4187;42.778;23.242;2023-09-19T12:06:24;95435.59;;;28.45;76.79
8298;BME280;4187;42.778;23.242;2023-09-19T12:08:51;95437.13;;;28.58;76.51
8298;BME280;4187;42.778;23.242;2023-09-19T12:11:21;95434.53;;;28.63;74.25
8298;BME280;4187;42.778;23.242;2023-09-19T12:13:51;95422.09;;;28.28;75.45
8298;BME280;4187;42.778;23.242;2023-09-19T12:16:19;95419.09;;;27.92;76.20
8298;BME280;4187;42.778;23.242;2023-09-19T12:18:49;95419.09;;;27.92;76.82
8298;BME280;4187;42.778;23.242;2023-09-19T12:21:27;95396.28;;;27.71;77.43
8298;BME280;4187;42.778;23.242;2023-09-19T12:24:06;95426.34;;;27.86;78.22
8298;BME280;4187;42.778;23.242;2023-09-19T12:26:40;95409.97;;;27.98;76.64
8298;BME280;4187;42.778;23.242;2023-09-19T12:29:17;95412.03;;;28.07;77.64
8298;BME280;4187;42.778;23.242;2023-09-19T12:31:48;95407.50;;;28.34;77.23
8298;BME280;4187;42.778;23.242;2023-09-19T12:34:20;95407.84;;;28.38;76.33
8298;BME280;4187;42.778;23.242;2023-09-19T12:36:48;95410.06;;;28.41;75.39
8298;BME280;4187;42.778;23.242;2023-09-19T12:39:24;95395.97;;;28.66;76.62
8298;BME280;4187;42.778;23.242;2023-09-19T12:41:52;95403.56;;;28.90;73.87
8298;BME280;4187;42.778;23.242;2023-09-19T12:44:21;95402.47;;;29.13;74.36
8298;BME280;4187;42.778;23.242;2023-09-19T12:46:50;95396.19;;;29.39;73.69
8298;BME280;4187;42.778;23.242;2023-09-19T12:49:20;95402.59;;;29.55;72.46
8298;BME280;4187;42.778;23.242;2023-09-19T12:51:49;95393.72;;;29.70;73.86
8298;BME280;4187;42.778;23.242;2023-09-19T12:54:16;95396.34;;;29.86;71.47
8298;BME280;4187;42.778;23.242;2023-09-19T12:56:44;95336.28;;;29.24;72.22
8298;BME280;4187;42.778;23.242;2023-09-19T12:59:15;95390.16;;;29.64;72.54
8298;BME280;4187;42.778;23.242;2023-09-19T13:01:43;95382.16;;;29.52;71.66
8298;BME280;4187;42.778;23.242;2023-09-19T13:04:13;95384.91;;;28.99;72.36
8298;BME280;4187;42.778;23.242;2023-09-19T13:06:44;95377.31;;;28.74;74.35
8298;BME280;4187;42.778;23.242;2023-09-19T13:09:11;95355.09;;;28.56;75.56
8298;BME280;4187;42.778;23.242;2023-09-19T13:11:40;95333.13;;;28.79;74.83
8298;BME280;4187;42.778;23.242;2023-09-19T13:14:20;95367.44;;;29.17;72.28
8298;BME280;4187;42.778;23.242;2023-09-19T13:17:00;95361.28;;;29.26;74.58
8298;BME280;4187;42.778;23.242;2023-09-19T13:19:37;95365.81;;;29.47;73.77
8298;BME280;4187;42.778;23.242;2023-09-19T13:22:05;95362.97;;;29.69;72.52
8298;BME280;4187;42.778;23.242;2023-09-19T13:24:34;95360.38;;;29.79;72.16
8298;BME280;4187;42.778;23.242;2023-09-19T13:27:05;95347.31;;;29.81;71.36
8298;BME280;4187;42.778;23.242;2023-09-19T13:29:32;95359.69;;;30.04;72.20
8298;BME280;4187;42.778;23.242;2023-09-19T13:32:01;95372.84;;;30.17;72.86